createdAt,value
2019-01-31T00:00:29.727Z,39.77
2019-01-31T00:03:31.963Z,35.50
2019-01-31T00:06:52.377Z,31.10
2019-01-31T00:09:52.151Z,37.33
2019-01-31T00:12:41.216Z,40.33
2019-01-31T00:15:28.845Z,33.87
2019-01-31T00:18:30.079Z,32.10
2019-01-31T00:21:47.050Z,36.17
2019-01-31T00:24:48.761Z,25.20
2019-01-31T00:27:38.131Z,43.47
2019-01-31T00:30:51.347Z,32.03
2019-01-31T00:33:32.627Z,30.23
2019-01-31T00:36:52.868Z,30.80
2019-01-31T00:39:59.374Z,29.53
2019-01-31T00:43:12.626Z,28.67
2019-01-31T00:46:32.868Z,28.43
2019-01-31T00:49:41.855Z,30.63
2019-01-31T00:52:40.895Z,32.70
2019-01-31T00:55:42.139Z,31.70
2019-01-31T00:58:40.783Z,31.37
2019-01-31T01:01:37.292Z,27.40
2019-01-31T01:04:30.494Z,29.60
2019-01-31T01:07:39.627Z,35.40
2019-01-31T01:10:42.146Z,32.87
2019-01-31T01:13:36.587Z,28.80
2019-01-31T01:16:50.763Z,26.57
2019-01-31T01:19:47.791Z,25.17
2019-01-31T01:22:45.663Z,35.67
2019-01-31T01:26:06.683Z,26.53
2019-01-31T01:29:06.203Z,24.90
2019-01-31T01:32:02.308Z,39.27
2019-01-31T01:35:22.470Z,26.17
2019-01-31T01:38:17.871Z,27.50
2019-01-31T01:41:37.886Z,28.23
2019-01-31T01:44:45.099Z,25.90
2019-01-31T01:47:39.071Z,21.93
2019-01-31T01:50:43.634Z,21.95
2019-01-31T01:53:39.431Z,30.10
2019-01-31T01:56:47.542Z,22.98
2019-01-31T01:59:50.411Z,25.67
2019-01-31T02:02:46.360Z,35.80
2019-01-31T02:05:54.739Z,21.63
2019-01-31T02:09:05.711Z,26.27
2019-01-31T02:12:00.931Z,28.30
2019-01-31T02:14:54.579Z,29.67
2019-01-31T02:17:41.185Z,31.83
2019-01-31T02:20:43.196Z,23.92
2019-01-31T02:23:42.400Z,22.90
2019-01-31T02:26:59.835Z,20.68
2019-01-31T02:30:09.609Z,22.98
2019-01-31T02:33:27.889Z,22.32
2019-01-31T02:36:44.387Z,35.63
2019-01-31T02:39:43.130Z,29.15
2019-01-31T02:43:02.855Z,20.02
2019-01-31T02:46:05.842Z,26.77
2019-01-31T02:49:02.088Z,21.80
2019-01-31T02:52:22.361Z,26.97
2019-01-31T02:55:25.684Z,33.33
2019-01-31T02:58:18.247Z,24.30
2019-01-31T03:01:25.716Z,31.48
2019-01-31T03:04:20.411Z,22.35
2019-01-31T03:07:33.347Z,24.63
2019-01-31T03:10:46.044Z,21.45
2019-01-31T03:13:43.149Z,28.10
2019-01-31T03:16:31.330Z,33.00
2019-01-31T03:19:28.088Z,30.57
2019-01-31T03:22:57.615Z,30.15
2019-01-31T03:26:04.262Z,37.50
2019-01-31T03:29:05.200Z,35.90
2019-01-31T03:32:07.798Z,49.42
2019-01-31T03:35:24.908Z,48.80
2019-01-31T03:38:38.667Z,123.87
2019-01-31T03:41:32.228Z,43.65
2019-01-31T03:44:32.320Z,32.60
2019-01-31T03:47:18.352Z,148.20
2019-01-31T03:50:08.215Z,28.52
2019-01-31T03:53:21.543Z,29.67
2019-01-31T03:56:34.691Z,23.15
2019-01-31T03:59:27.223Z,26.42
2019-01-31T04:02:28.775Z,33.73
2019-01-31T04:05:24.079Z,31.45
2019-01-31T04:07:54.256Z,32.80
2019-01-31T04:10:24.450Z,28.07
2019-01-31T04:12:54.680Z,24.60
2019-01-31T04:15:24.851Z,28.32
2019-01-31T04:17:55.056Z,32.38
2019-01-31T04:20:25.244Z,27.30
2019-01-31T04:22:55.391Z,28.45
2019-01-31T04:25:25.580Z,28.42
2019-01-31T04:27:55.817Z,27.70
2019-01-31T04:30:26.183Z,30.88
2019-01-31T04:32:56.397Z,25.12
2019-01-31T04:35:26.603Z,23.00
2019-01-31T04:37:56.783Z,28.30
2019-01-31T04:40:31.504Z,30.90
2019-01-31T04:42:58.844Z,27.80
2019-01-31T04:45:29.014Z,24.65
2019-01-31T04:47:59.185Z,32.28
2019-01-31T04:50:29.467Z,23.45
2019-01-31T04:52:59.751Z,22.35
2019-01-31T04:55:29.949Z,19.85
2019-01-31T04:58:00.204Z,25.30
2019-01-31T05:00:30.387Z,35.15
2019-01-31T05:03:00.672Z,24.70
2019-01-31T05:05:30.851Z,22.62
2019-01-31T05:08:01.197Z,22.98
2019-01-31T05:10:42.447Z,20.57
2019-01-31T05:13:03.399Z,23.95
2019-01-31T05:15:35.066Z,27.62
2019-01-31T05:18:05.362Z,27.90
2019-01-31T05:20:35.544Z,19.85
2019-01-31T05:23:05.723Z,23.67
2019-01-31T05:25:35.968Z,20.27
2019-01-31T05:28:06.173Z,25.50
2019-01-31T05:30:36.361Z,28.52
2019-01-31T05:33:06.523Z,25.90
2019-01-31T05:35:36.718Z,22.65
2019-01-31T05:38:06.906Z,21.55
2019-01-31T05:40:37.068Z,21.95
2019-01-31T05:43:07.365Z,22.60
2019-01-31T05:45:37.511Z,23.42
2019-01-31T05:48:07.701Z,25.50
2019-01-31T05:50:37.860Z,23.55
2019-01-31T05:53:08.040Z,27.98
2019-01-31T05:55:38.200Z,24.23
2019-01-31T05:58:08.407Z,23.67
2019-01-31T06:00:39.442Z,24.77
2019-01-31T06:03:09.649Z,16.27
2019-01-31T06:05:39.792Z,28.45
2019-01-31T06:08:09.965Z,24.87
2019-01-31T06:10:40.215Z,25.35
2019-01-31T06:13:10.947Z,18.52
2019-01-31T06:15:41.280Z,19.27
2019-01-31T06:18:11.447Z,22.93
2019-01-31T06:20:41.622Z,21.87
2019-01-31T06:23:11.799Z,28.70
2019-01-31T06:25:41.986Z,24.90
2019-01-31T06:28:12.964Z,24.12
2019-01-31T06:30:43.422Z,23.47
2019-01-31T06:33:13.583Z,22.95
2019-01-31T06:35:44.176Z,27.02
2019-01-31T06:38:14.359Z,25.77
2019-01-31T06:40:44.783Z,19.52
2019-01-31T06:43:14.980Z,20.65
2019-01-31T06:45:45.140Z,30.37
2019-01-31T06:48:15.362Z,30.08
2019-01-31T06:50:45.507Z,25.95
2019-01-31T06:53:15.689Z,23.85
2019-01-31T06:55:45.851Z,19.45
2019-01-31T06:58:16.171Z,24.07
2019-01-31T07:00:46.423Z,28.40
2019-01-31T07:03:16.651Z,22.37
2019-01-31T07:05:46.916Z,29.35
2019-01-31T07:08:17.105Z,19.45
2019-01-31T07:10:47.388Z,21.62
2019-01-31T07:13:17.550Z,17.45
2019-01-31T07:15:47.745Z,23.73
2019-01-31T07:18:18.017Z,20.25
2019-01-31T07:20:48.243Z,22.40
2019-01-31T07:23:18.473Z,19.07
2019-01-31T07:25:48.640Z,20.60
2019-01-31T07:28:20.427Z,21.85
2019-01-31T07:30:50.622Z,20.72
2019-01-31T07:33:20.803Z,36.58
2019-01-31T07:35:52.266Z,27.42
2019-01-31T07:38:22.559Z,22.05
2019-01-31T07:40:52.719Z,25.02
2019-01-31T07:43:22.876Z,26.68
2019-01-31T07:45:53.055Z,20.65
2019-01-31T07:48:23.232Z,20.65
2019-01-31T07:50:53.608Z,30.30
2019-01-31T07:53:23.815Z,24.92
2019-01-31T07:55:53.971Z,26.17
2019-01-31T07:58:24.258Z,28.35
2019-01-31T08:00:54.445Z,21.97
2019-01-31T08:03:24.636Z,24.12
2019-01-31T08:05:54.817Z,33.42
2019-01-31T08:08:25.071Z,19.15
2019-01-31T08:10:55.287Z,20.90
2019-01-31T08:13:25.702Z,21.57
2019-01-31T08:15:55.892Z,19.07
2019-01-31T08:18:26.055Z,23.27
2019-01-31T08:20:56.321Z,28.02
2019-01-31T08:23:26.375Z,25.57
2019-01-31T08:25:57.523Z,23.90
2019-01-31T08:28:27.728Z,25.17
2019-01-31T08:30:57.910Z,22.58
2019-01-31T08:33:28.542Z,20.50
2019-01-31T08:35:58.971Z,19.95
2019-01-31T08:38:29.052Z,25.70
2019-01-31T08:40:59.121Z,23.85
2019-01-31T08:43:29.180Z,23.87
2019-01-31T08:45:59.240Z,22.07
2019-01-31T08:48:29.590Z,20.48
2019-01-31T08:50:59.928Z,22.37
2019-01-31T08:53:30.168Z,23.13
2019-01-31T08:56:00.449Z,21.77
2019-01-31T08:58:30.805Z,22.97
2019-01-31T09:01:01.075Z,25.30
2019-01-31T09:03:32.906Z,27.97
2019-01-31T09:06:03.501Z,22.00
2019-01-31T09:08:33.744Z,18.43
2019-01-31T09:11:04.137Z,26.52
2019-01-31T09:13:34.332Z,29.17
2019-01-31T09:16:04.507Z,27.13
2019-01-31T09:18:34.679Z,29.13
2019-01-31T09:21:16.803Z,19.33
2019-01-31T09:24:23.204Z,22.03
2019-01-31T09:27:28.227Z,28.90
2019-01-31T09:30:58.169Z,18.47
2019-01-31T09:34:04.504Z,23.60
2019-01-31T09:37:00.120Z,24.70
2019-01-31T09:40:10.224Z,25.13
2019-01-31T09:43:16.754Z,22.40
2019-01-31T09:46:32.662Z,22.77
2019-01-31T09:49:30.931Z,21.17
2019-01-31T09:52:54.635Z,21.83
2019-01-31T09:55:55.803Z,28.00
2019-01-31T09:58:42.547Z,28.50
2019-01-31T10:01:48.744Z,19.17
2019-01-31T10:04:37.056Z,18.63
2019-01-31T10:07:32.908Z,19.43
2019-01-31T10:10:19.334Z,23.90
2019-01-31T10:13:39.913Z,21.70
2019-01-31T10:16:37.257Z,19.40
2019-01-31T10:19:52.028Z,22.60
2019-01-31T10:23:02.589Z,18.60
2019-01-31T10:26:19.922Z,21.40
2019-01-31T10:29:13.225Z,18.03
2019-01-31T10:32:30.243Z,21.37
2019-01-31T10:35:26.867Z,18.33
2019-01-31T10:38:21.411Z,20.00
2019-01-31T10:41:20.079Z,15.17
2019-01-31T10:44:31.088Z,20.43
2019-01-31T10:47:35.009Z,20.40
2019-01-31T10:50:45.781Z,28.17
2019-01-31T10:53:44.127Z,22.37
2019-01-31T10:56:59.244Z,21.03
2019-01-31T11:00:01.732Z,21.27
2019-01-31T11:03:12.708Z,22.37
2019-01-31T11:06:08.807Z,30.53
2019-01-31T11:09:16.087Z,35.70
2019-01-31T11:12:09.323Z,28.27
2019-01-31T11:15:02.685Z,29.03
2019-01-31T11:18:00.869Z,23.43
2019-01-31T11:21:03.868Z,20.87
2019-01-31T11:24:14.845Z,23.53
2019-01-31T11:27:07.302Z,19.83
2019-01-31T11:30:30.368Z,23.63
2019-01-31T11:33:16.043Z,22.07
2019-01-31T11:36:26.137Z,25.03
2019-01-31T11:39:45.767Z,23.17
2019-01-31T11:43:11.976Z,25.83
2019-01-31T11:46:23.400Z,34.67
2019-01-31T11:49:18.108Z,32.07
2019-01-31T11:52:23.634Z,31.20
2019-01-31T11:55:17.324Z,25.60
2019-01-31T11:58:28.348Z,30.40
2019-01-31T12:00:58.519Z,26.60
2019-01-31T12:03:28.687Z,26.17
2019-01-31T12:05:58.872Z,27.90
2019-01-31T12:08:29.109Z,27.80
2019-01-31T12:10:59.402Z,33.60
2019-01-31T12:13:29.564Z,25.00
2019-01-31T12:15:59.903Z,30.23
2019-01-31T12:18:30.061Z,30.97
2019-01-31T12:21:01.939Z,27.20
2019-01-31T12:23:32.530Z,25.70
2019-01-31T12:26:03.897Z,27.30
2019-01-31T12:28:34.198Z,27.53
2019-01-31T12:31:04.521Z,27.93
2019-01-31T12:33:34.724Z,28.20
2019-01-31T12:36:05.093Z,29.50
2019-01-31T12:38:36.922Z,25.83
2019-01-31T12:41:07.416Z,30.00
2019-01-31T12:43:37.911Z,31.57
2019-01-31T12:46:08.119Z,32.83
2019-01-31T12:48:38.310Z,29.07
2019-01-31T12:51:08.515Z,35.07
2019-01-31T12:53:38.686Z,34.20
2019-01-31T12:56:08.831Z,29.80
2019-01-31T12:58:39.012Z,27.30
2019-01-31T13:01:09.279Z,33.23
2019-01-31T13:03:39.435Z,32.00
2019-01-31T13:06:09.607Z,39.30
2019-01-31T13:08:39.768Z,35.83
2019-01-31T13:11:10.037Z,34.10
2019-01-31T13:13:46.160Z,32.43
2019-01-31T13:16:12.053Z,29.53
2019-01-31T13:18:42.215Z,23.67
2019-01-31T13:21:13.088Z,26.10
2019-01-31T13:23:43.344Z,24.97
2019-01-31T13:26:13.523Z,22.83
2019-01-31T13:28:43.765Z,24.90
2019-01-31T13:31:13.940Z,24.57
2019-01-31T13:33:46.637Z,27.53
2019-01-31T13:36:16.562Z,23.97
2019-01-31T13:38:46.731Z,25.23
2019-01-31T13:41:18.159Z,23.30
2019-01-31T13:43:57.260Z,29.93
2019-01-31T13:46:20.292Z,21.50
2019-01-31T13:48:50.455Z,23.83
2019-01-31T13:51:20.616Z,22.90
2019-01-31T13:53:50.879Z,18.80
2019-01-31T13:56:21.015Z,19.60
2019-01-31T13:58:51.193Z,19.23
2019-01-31T14:01:21.352Z,19.40
2019-01-31T14:03:51.552Z,17.23
2019-01-31T14:06:21.696Z,19.77
2019-01-31T14:08:51.940Z,21.43
2019-01-31T14:11:22.109Z,19.97
2019-01-31T14:13:52.295Z,18.90
2019-01-31T14:16:22.495Z,19.80
2019-01-31T14:18:53.497Z,19.13
2019-01-31T14:21:23.787Z,15.93
2019-01-31T14:23:53.987Z,16.40
2019-01-31T14:26:24.151Z,17.17
2019-01-31T14:28:56.190Z,19.07
2019-01-31T14:31:26.435Z,19.83
2019-01-31T14:33:56.631Z,17.67
2019-01-31T14:36:26.816Z,17.60
2019-01-31T14:38:56.992Z,15.30
2019-01-31T14:41:27.484Z,18.60
2019-01-31T14:43:57.655Z,20.67
2019-01-31T14:46:27.809Z,17.07
2019-01-31T14:48:58.001Z,16.07
2019-01-31T14:51:28.162Z,15.87
2019-01-31T14:53:58.347Z,16.90
2019-01-31T14:56:28.616Z,17.87
2019-01-31T14:58:58.896Z,19.43
2019-01-31T15:01:29.086Z,19.57
2019-01-31T15:03:59.250Z,19.87
2019-01-31T15:06:29.432Z,17.93
2019-01-31T15:08:59.633Z,16.70
2019-01-31T15:11:29.922Z,18.73
2019-01-31T15:14:00.072Z,20.00
2019-01-31T15:16:30.255Z,18.93
2019-01-31T15:19:00.468Z,17.43
2019-01-31T15:21:30.627Z,17.83
2019-01-31T15:24:00.940Z,17.77
2019-01-31T15:26:31.256Z,16.10
2019-01-31T15:29:03.787Z,15.90
2019-01-31T15:31:33.297Z,17.23
2019-01-31T15:34:03.940Z,19.00
2019-01-31T15:36:34.164Z,23.47
2019-01-31T15:39:07.398Z,23.80
2019-01-31T15:41:37.544Z,30.40
2019-01-31T15:44:07.927Z,27.20
2019-01-31T15:46:38.111Z,25.13
2019-01-31T15:49:08.275Z,29.03
2019-01-31T15:51:38.463Z,24.10
2019-01-31T15:54:08.857Z,27.97
2019-01-31T15:56:39.047Z,26.03
2019-01-31T15:59:09.347Z,30.27
2019-01-31T16:01:39.891Z,23.30
2019-01-31T16:04:10.079Z,30.30
2019-01-31T16:06:40.367Z,29.70
2019-01-31T16:09:10.566Z,30.57
2019-01-31T16:11:40.777Z,27.10
2019-01-31T16:14:11.063Z,27.73
2019-01-31T16:16:41.500Z,32.60
2019-01-31T16:19:11.743Z,31.80
2019-01-31T16:21:41.913Z,34.43
2019-01-31T16:24:12.169Z,35.80
2019-01-31T16:26:42.346Z,37.73
2019-01-31T16:29:12.493Z,32.43
2019-01-31T16:31:42.682Z,34.37
2019-01-31T16:34:12.860Z,31.33
2019-01-31T16:36:43.136Z,40.23
2019-01-31T16:39:13.298Z,34.13
2019-01-31T16:41:43.459Z,35.97
2019-01-31T16:44:13.680Z,37.47
2019-01-31T16:46:43.830Z,38.97
2019-01-31T16:49:14.042Z,39.47
2019-01-31T16:51:45.547Z,41.23
2019-01-31T16:54:15.910Z,34.67
2019-01-31T16:56:46.081Z,39.60
2019-01-31T16:59:16.373Z,38.10
2019-01-31T17:01:46.568Z,37.97
2019-01-31T17:04:16.756Z,53.03
2019-01-31T17:06:46.929Z,46.57
2019-01-31T17:09:17.139Z,36.63
2019-01-31T17:11:47.399Z,37.50
2019-01-31T17:14:17.577Z,41.47
2019-01-31T17:16:47.769Z,39.30
2019-01-31T17:19:17.979Z,40.23
2019-01-31T17:21:49.239Z,44.50
2019-01-31T17:24:19.439Z,45.60
2019-01-31T17:26:49.640Z,52.93
2019-01-31T17:29:19.837Z,51.53
2019-01-31T17:31:50.015Z,60.47
2019-01-31T17:34:20.181Z,64.40
2019-01-31T17:36:50.379Z,56.43
2019-01-31T17:39:20.551Z,57.50
2019-01-31T17:41:50.855Z,56.70
2019-01-31T17:44:21.165Z,59.90
2019-01-31T17:46:51.442Z,56.07
2019-01-31T17:49:21.644Z,56.80
2019-01-31T17:51:51.882Z,54.50
2019-01-31T17:54:22.080Z,59.27
2019-01-31T17:56:52.344Z,61.63
2019-01-31T17:59:22.541Z,57.62
2019-01-31T18:01:55.266Z,64.72
2019-01-31T18:04:24.651Z,60.87
2019-01-31T18:06:54.859Z,57.53
2019-01-31T18:09:25.168Z,48.43
2019-01-31T18:11:55.379Z,52.90
2019-01-31T18:14:25.538Z,54.90
2019-01-31T18:16:55.780Z,56.80
2019-01-31T18:19:26.078Z,48.77
2019-01-31T18:21:56.415Z,58.43
2019-01-31T18:24:26.603Z,64.23
2019-01-31T18:26:56.812Z,71.90
2019-01-31T18:29:27.044Z,71.53
2019-01-31T18:31:57.260Z,65.92
2019-01-31T18:34:27.540Z,69.30
2019-01-31T18:36:57.956Z,63.03
2019-01-31T18:39:28.224Z,52.80
2019-01-31T18:41:58.533Z,65.52
2019-01-31T18:44:28.789Z,56.95
2019-01-31T18:46:59.018Z,69.17
2019-01-31T18:49:29.215Z,70.08
2019-01-31T18:51:59.430Z,71.82
2019-01-31T18:54:29.671Z,75.30
2019-01-31T18:56:59.888Z,108.97
2019-01-31T18:59:30.080Z,121.40
2019-01-31T19:02:00.277Z,78.93
2019-01-31T19:04:32.021Z,74.77
2019-01-31T19:07:02.359Z,165.43
2019-01-31T19:09:32.657Z,79.70
2019-01-31T19:12:02.979Z,85.53
2019-01-31T19:14:34.063Z,84.90
2019-01-31T19:17:04.874Z,79.10
2019-01-31T19:19:35.088Z,81.07
2019-01-31T19:22:05.549Z,72.63
2019-01-31T19:24:35.720Z,72.70
2019-01-31T19:27:06.395Z,87.00
2019-01-31T19:29:36.776Z,89.30
2019-01-31T19:32:06.971Z,82.20
2019-01-31T19:34:37.285Z,80.67
2019-01-31T19:37:07.596Z,74.17
2019-01-31T19:39:37.794Z,68.75
2019-01-31T19:42:07.991Z,68.05
2019-01-31T19:44:38.210Z,68.40
2019-01-31T19:47:08.683Z,62.78
2019-01-31T19:49:39.845Z,63.85
2019-01-31T19:52:10.152Z,65.15
2019-01-31T19:54:40.473Z,70.20
2019-01-31T19:57:10.777Z,57.55
2019-01-31T19:59:40.959Z,57.45
2019-01-31T20:02:11.169Z,49.57
2019-01-31T20:04:41.533Z,56.27
2019-01-31T20:07:11.764Z,47.47
2019-01-31T20:09:41.929Z,45.08
2019-01-31T20:12:12.128Z,46.92
2019-01-31T20:14:42.335Z,42.10
2019-01-31T20:17:12.562Z,41.60
2019-01-31T20:19:42.780Z,42.60
2019-01-31T20:22:13.047Z,39.27
2019-01-31T20:24:43.245Z,43.70
2019-01-31T20:27:13.579Z,40.95
2019-01-31T20:29:43.775Z,46.07
2019-01-31T20:32:13.955Z,42.60
2019-01-31T20:34:44.155Z,49.23
2019-01-31T20:37:14.444Z,42.78
2019-01-31T20:39:44.617Z,36.77
2019-01-31T20:42:14.838Z,43.03
2019-01-31T20:44:45.015Z,35.90
2019-01-31T20:47:15.941Z,41.43
2019-01-31T20:49:46.236Z,39.30
2019-01-31T20:52:16.450Z,30.37
2019-01-31T20:54:46.758Z,33.20
2019-01-31T20:57:16.959Z,30.70
2019-01-31T20:59:47.168Z,34.93
2019-01-31T21:02:17.509Z,35.47
2019-01-31T21:04:47.737Z,31.73
2019-01-31T21:07:18.011Z,29.33
2019-01-31T21:09:48.255Z,30.30
2019-01-31T21:12:18.726Z,31.33
2019-01-31T21:14:48.919Z,26.53
2019-01-31T21:17:19.159Z,24.63
2019-01-31T21:19:49.444Z,26.30
2019-01-31T21:22:19.747Z,25.03
2019-01-31T21:24:49.956Z,28.47
2019-01-31T21:27:20.187Z,25.37
2019-01-31T21:29:50.440Z,27.70
2019-01-31T21:32:20.772Z,25.00
2019-01-31T21:34:51.002Z,29.93
2019-01-31T21:37:21.205Z,23.97
2019-01-31T21:39:51.470Z,26.50
2019-01-31T21:42:21.776Z,25.20
2019-01-31T21:44:52.102Z,30.10
2019-01-31T21:47:22.356Z,26.20
2019-01-31T21:49:52.594Z,22.87
2019-01-31T21:52:22.809Z,25.30
2019-01-31T21:54:53.055Z,23.87
2019-01-31T21:57:23.247Z,30.90
2019-01-31T21:59:53.489Z,21.27
2019-01-31T22:02:23.797Z,22.57
2019-01-31T22:04:54.107Z,22.47
2019-01-31T22:07:25.488Z,24.43
2019-01-31T22:09:55.674Z,23.20
2019-01-31T22:12:25.844Z,22.00
2019-01-31T22:14:56.067Z,24.63
2019-01-31T22:17:26.481Z,23.10
2019-01-31T22:19:56.788Z,20.80
2019-01-31T22:22:26.996Z,25.40
2019-01-31T22:24:57.203Z,26.13
2019-01-31T22:27:27.392Z,23.60
2019-01-31T22:29:57.626Z,21.83
2019-01-31T22:32:27.845Z,18.47
2019-01-31T22:34:58.022Z,20.83
2019-01-31T22:37:28.628Z,25.23
2019-01-31T22:39:58.800Z,24.20
2019-01-31T22:42:28.999Z,25.13
2019-01-31T22:44:59.188Z,21.33
2019-01-31T22:47:29.552Z,23.17
2019-01-31T22:49:59.753Z,21.07
2019-01-31T22:52:29.964Z,18.93
2019-01-31T22:55:00.323Z,19.63
2019-01-31T22:57:30.631Z,23.20
2019-01-31T23:00:01.016Z,20.47
2019-01-31T23:02:32.833Z,20.57
2019-01-31T23:05:03.082Z,19.93
2019-01-31T23:07:33.273Z,17.40
2019-01-31T23:10:04.091Z,14.63
2019-01-31T23:12:34.265Z,18.67
2019-01-31T23:15:05.224Z,18.03
2019-01-31T23:17:37.211Z,19.07
2019-01-31T23:20:08.763Z,17.23
2019-01-31T23:22:38.980Z,17.37
2019-01-31T23:25:09.291Z,15.10
2019-01-31T23:27:39.486Z,16.93
2019-01-31T23:30:10.859Z,16.63
2019-01-31T23:32:41.004Z,14.63
2019-01-31T23:35:11.195Z,14.47
2019-01-31T23:37:41.360Z,16.50
2019-01-31T23:40:11.882Z,18.10
2019-01-31T23:42:42.058Z,13.80
2019-01-31T23:45:13.025Z,15.63
2019-01-31T23:47:49.010Z,16.00
2019-01-31T23:50:15.741Z,20.70
2019-01-31T23:52:46.030Z,16.00
2019-01-31T23:55:16.325Z,16.70
2019-01-31T23:57:46.495Z,13.30
